createdAt,value
2022-09-26T00:01:07.609Z,12.50
2022-09-26T00:04:05.279Z,12.90
2022-09-26T00:07:02.695Z,14.00
2022-09-26T00:10:00.106Z,15.20
2022-09-26T00:12:57.573Z,15.90
2022-09-26T00:15:55.014Z,16.30
2022-09-26T00:18:52.429Z,17.00
2022-09-26T00:21:50.085Z,17.60
2022-09-26T00:24:47.542Z,18.10
2022-09-26T00:27:45.003Z,16.60
2022-09-26T00:30:42.503Z,18.20
2022-09-26T00:33:40.067Z,18.80
2022-09-26T00:36:38.885Z,19.40
2022-09-26T00:39:36.562Z,19.60
2022-09-26T00:42:33.995Z,19.60
2022-09-26T00:45:31.478Z,19.60
2022-09-26T00:48:28.916Z,18.70
2022-09-26T00:51:26.353Z,19.20
2022-09-26T00:54:23.792Z,20.60
2022-09-26T00:57:21.230Z,20.00
2022-09-26T01:00:18.660Z,19.70
2022-09-26T01:03:16.556Z,18.80
2022-09-26T01:06:15.441Z,20.70
2022-09-26T01:09:13.082Z,19.80
2022-09-26T01:12:10.874Z,19.10
2022-09-26T01:15:09.278Z,20.10
2022-09-26T01:18:07.670Z,20.40
2022-09-26T01:21:05.115Z,20.30
2022-09-26T01:24:02.543Z,20.30
2022-09-26T01:26:59.940Z,20.40
2022-09-26T01:29:57.369Z,20.50
2022-09-26T01:32:54.824Z,20.30
2022-09-26T01:35:52.258Z,19.20
2022-09-26T01:38:49.698Z,18.40
2022-09-26T01:41:47.145Z,16.40
2022-09-26T01:44:44.607Z,14.50
2022-09-26T01:47:42.055Z,13.00
2022-09-26T01:50:39.473Z,11.90
2022-09-26T01:53:36.887Z,8.60
2022-09-26T01:56:34.323Z,8.00
2022-09-26T01:59:31.740Z,6.70
2022-09-26T02:02:29.225Z,6.60
2022-09-26T02:05:26.738Z,6.20
2022-09-26T02:08:25.187Z,5.40
2022-09-26T02:11:22.589Z,5.60
2022-09-26T02:14:20.040Z,5.10
2022-09-26T02:17:17.458Z,5.20
2022-09-26T02:20:15.085Z,5.10
2022-09-26T02:23:12.511Z,4.90
2022-09-26T02:26:09.974Z,5.20
2022-09-26T02:29:07.996Z,5.30
2022-09-26T02:32:06.031Z,5.10
2022-09-26T02:35:23.559Z,4.80
2022-09-26T02:38:20.985Z,5.00
2022-09-26T02:41:19.060Z,5.10
2022-09-26T02:44:16.540Z,5.00
2022-09-26T02:47:13.994Z,5.00
2022-09-26T02:50:11.412Z,5.00
2022-09-26T02:53:08.929Z,5.10
2022-09-26T02:56:06.375Z,4.80
2022-09-26T02:59:03.799Z,4.60
2022-09-26T03:02:01.551Z,4.40
2022-09-26T03:04:59.195Z,4.70
2022-09-26T03:07:57.626Z,4.60
2022-09-26T03:10:56.070Z,3.80
2022-09-26T03:13:53.515Z,3.70
2022-09-26T03:16:51.012Z,3.30
2022-09-26T03:19:48.483Z,4.10
2022-09-26T03:22:45.909Z,3.30
2022-09-26T03:25:43.324Z,3.30
2022-09-26T03:28:41.534Z,3.30
2022-09-26T03:31:39.010Z,3.40
2022-09-26T03:34:39.729Z,3.60
2022-09-26T03:37:37.619Z,3.30
2022-09-26T03:40:35.139Z,3.40
2022-09-26T03:43:32.681Z,3.30
2022-09-26T03:46:30.186Z,3.20
2022-09-26T03:49:27.608Z,2.70
2022-09-26T03:52:25.846Z,2.30
2022-09-26T03:55:23.288Z,3.00
2022-09-26T03:58:20.741Z,2.50
2022-09-26T04:01:18.298Z,2.50
2022-09-26T04:04:16.670Z,2.20
2022-09-26T04:07:15.219Z,2.80
2022-09-26T04:10:12.638Z,3.00
2022-09-26T04:13:10.049Z,3.00
2022-09-26T04:16:07.668Z,3.70
2022-09-26T04:19:05.279Z,3.30
2022-09-26T04:22:02.694Z,4.00
2022-09-26T04:25:01.241Z,4.00
2022-09-26T04:27:59.445Z,4.70
2022-09-26T04:30:56.860Z,5.70
2022-09-26T04:33:55.272Z,5.10
2022-09-26T04:36:52.714Z,5.30
2022-09-26T04:39:50.141Z,5.80
2022-09-26T04:42:47.590Z,5.50
2022-09-26T04:45:45.046Z,5.80
2022-09-26T04:48:42.641Z,6.10
2022-09-26T04:51:40.105Z,7.10
2022-09-26T04:54:39.207Z,7.40
2022-09-26T04:57:38.204Z,7.40
2022-09-26T05:00:35.675Z,8.00
2022-09-26T05:03:33.124Z,8.00
2022-09-26T05:06:30.543Z,8.20
2022-09-26T05:09:29.896Z,8.60
2022-09-26T05:12:29.330Z,9.60
2022-09-26T05:15:26.750Z,8.80
2022-09-26T05:18:24.561Z,9.30
2022-09-26T05:21:22.012Z,9.80
2022-09-26T05:24:37.281Z,10.80
2022-09-26T05:27:34.717Z,10.40
2022-09-26T05:30:32.214Z,10.80
2022-09-26T05:33:29.720Z,12.20
2022-09-26T05:36:27.127Z,11.10
2022-09-26T05:39:42.843Z,12.30
2022-09-26T05:42:40.421Z,12.50
2022-09-26T05:45:37.859Z,13.10
2022-09-26T05:48:35.340Z,13.80
2022-09-26T05:55:05.973Z,12.80
2022-09-26T05:58:03.427Z,12.90
2022-09-26T06:01:00.909Z,12.50
2022-09-26T06:03:58.380Z,12.70
2022-09-26T06:06:55.883Z,14.10
2022-09-26T06:09:53.361Z,12.70
2022-09-26T06:12:51.285Z,12.90
2022-09-26T06:15:50.089Z,13.20
2022-09-26T06:18:48.091Z,12.90
2022-09-26T06:21:45.512Z,12.20
2022-09-26T06:24:42.926Z,12.20
2022-09-26T06:27:40.356Z,12.20
2022-09-26T06:30:37.805Z,11.90
2022-09-26T06:33:35.225Z,11.70
2022-09-26T06:36:32.739Z,11.80
2022-09-26T06:39:35.803Z,11.30
2022-09-26T06:42:37.994Z,12.20
2022-09-26T06:45:36.434Z,11.50
2022-09-26T06:48:33.865Z,10.80
2022-09-26T06:51:32.080Z,11.30
2022-09-26T06:54:29.507Z,12.60
2022-09-26T06:57:27.117Z,12.00
2022-09-26T07:00:24.998Z,12.90
2022-09-26T07:03:26.768Z,12.80
2022-09-26T07:06:24.601Z,12.30
2022-09-26T07:09:22.003Z,11.60
2022-09-26T07:12:19.677Z,10.10
2022-09-26T07:15:17.082Z,10.00
2022-09-26T07:18:14.503Z,9.20
2022-09-26T07:21:11.934Z,9.40
2022-09-26T07:24:14.128Z,8.80
2022-09-26T07:27:11.831Z,8.30
2022-09-26T07:30:09.607Z,7.60
2022-09-26T07:33:07.051Z,7.30
2022-09-26T07:36:05.675Z,7.50
2022-09-26T07:39:03.414Z,7.90
2022-09-26T07:42:04.327Z,7.10
2022-09-26T07:45:24.290Z,7.60
2022-09-26T07:48:51.215Z,7.20
2022-09-26T07:51:49.849Z,7.30
2022-09-26T07:54:47.589Z,6.90
2022-09-26T07:57:49.611Z,7.40
2022-09-26T08:00:47.047Z,7.10
2022-09-26T08:03:44.496Z,7.30
2022-09-26T08:06:41.941Z,7.90
2022-09-26T08:09:39.383Z,6.80
2022-09-26T08:12:36.819Z,6.50
2022-09-26T08:15:34.256Z,6.80
2022-09-26T08:18:31.672Z,6.20
2022-09-26T08:21:29.123Z,6.10
2022-09-26T08:24:26.561Z,6.50
2022-09-26T08:27:23.989Z,6.90
2022-09-26T08:30:23.819Z,6.60
2022-09-26T08:33:23.603Z,7.30
2022-09-26T08:36:21.697Z,6.80
2022-09-26T08:39:19.220Z,6.20
2022-09-26T08:42:18.239Z,6.60
2022-09-26T08:45:29.521Z,6.60
2022-09-26T08:48:27.907Z,6.50
2022-09-26T08:51:29.022Z,6.60
2022-09-26T08:54:26.872Z,6.40
2022-09-26T08:57:24.285Z,5.60
2022-09-26T09:00:21.755Z,5.00
2022-09-26T09:03:19.208Z,4.50
2022-09-26T09:06:16.667Z,5.20
2022-09-26T09:09:14.118Z,5.10
2022-09-26T09:12:11.564Z,5.00
2022-09-26T09:15:24.718Z,4.50
2022-09-26T09:18:24.518Z,4.30
2022-09-26T09:21:22.024Z,4.00
2022-09-26T09:24:19.446Z,4.10
2022-09-26T09:30:34.299Z,3.20
2022-09-26T09:33:31.775Z,3.00
2022-09-26T09:36:29.195Z,2.60
2022-09-26T09:39:26.642Z,2.30
2022-09-26T09:42:24.079Z,2.10
2022-09-26T09:45:21.489Z,1.90
2022-09-26T09:48:18.928Z,1.70
2022-09-26T09:51:16.370Z,1.50
2022-09-26T09:54:13.841Z,1.50
2022-09-26T09:57:11.303Z,1.50
2022-09-26T10:00:08.776Z,1.60
2022-09-26T10:03:07.619Z,1.30
2022-09-26T10:06:05.106Z,1.50
2022-09-26T10:09:35.789Z,1.40
2022-09-26T10:12:28.647Z,1.40
2022-09-26T10:15:27.523Z,1.20
2022-09-26T10:18:26.404Z,1.30
2022-09-26T10:21:25.253Z,1.20
2022-09-26T10:24:24.104Z,1.40
2022-09-26T10:27:22.794Z,1.50
2022-09-26T10:30:20.237Z,1.40
2022-09-26T10:33:17.664Z,1.60
2022-09-26T10:36:16.821Z,1.70
2022-09-26T10:39:32.190Z,1.50
2022-09-26T10:42:32.330Z,1.40
2022-09-26T10:45:30.205Z,1.80
2022-09-26T10:48:27.754Z,1.40
2022-09-26T10:51:25.180Z,1.80
2022-09-26T10:54:23.182Z,2.10
2022-09-26T10:57:20.629Z,1.70
2022-09-26T11:00:18.042Z,1.70
2022-09-26T11:03:15.537Z,1.80
2022-09-26T11:06:13.011Z,1.70
2022-09-26T11:09:11.391Z,1.80
2022-09-26T11:12:08.861Z,1.70
2022-09-26T11:15:06.303Z,1.50
2022-09-26T11:18:04.175Z,1.60
2022-09-26T11:21:01.832Z,1.60
2022-09-26T11:23:59.619Z,1.40
2022-09-26T11:26:57.054Z,1.80
2022-09-26T11:29:55.774Z,1.70
2022-09-26T11:32:54.525Z,1.60
2022-09-26T11:35:53.133Z,1.80
2022-09-26T11:38:50.861Z,1.90
2022-09-26T11:41:48.955Z,1.40
2022-09-26T11:44:46.382Z,1.40
2022-09-26T11:47:43.790Z,1.40
2022-09-26T11:50:41.226Z,1.90
2022-09-26T11:53:40.028Z,1.70
2022-09-26T11:56:38.104Z,1.70
2022-09-26T11:59:36.383Z,1.70
2022-09-26T12:02:34.016Z,2.20
2022-09-26T12:05:31.654Z,2.10
2022-09-26T12:08:30.289Z,2.00
2022-09-26T12:11:27.723Z,1.90
2022-09-26T12:14:25.305Z,2.00
2022-09-26T12:17:23.188Z,1.60
2022-09-26T12:20:20.608Z,1.50
2022-09-26T12:23:18.007Z,1.60
2022-09-26T12:26:15.485Z,1.90
2022-09-26T12:29:12.902Z,2.00
2022-09-26T12:32:14.700Z,2.00
2022-09-26T12:35:12.239Z,1.90
2022-09-26T12:38:09.671Z,1.70
2022-09-26T12:41:07.101Z,2.10
2022-09-26T12:44:04.658Z,2.60
2022-09-26T12:47:02.165Z,2.20
2022-09-26T12:49:59.591Z,1.90
2022-09-26T12:52:57.031Z,2.10
2022-09-26T12:55:54.467Z,1.80
2022-09-26T12:58:51.908Z,1.60
2022-09-26T13:01:50.268Z,1.90
2022-09-26T13:04:48.165Z,1.80
2022-09-26T13:07:45.649Z,2.50
2022-09-26T13:10:43.077Z,2.40
2022-09-26T13:13:40.558Z,2.30
2022-09-26T13:16:37.994Z,1.60
2022-09-26T13:19:35.545Z,2.00
2022-09-26T13:22:34.547Z,2.00
2022-09-26T13:25:32.313Z,1.90
2022-09-26T13:28:29.737Z,2.00
2022-09-26T13:31:31.820Z,1.70
2022-09-26T13:34:30.007Z,2.00
2022-09-26T13:37:28.725Z,1.70
2022-09-26T13:40:33.731Z,1.90
2022-09-26T13:43:32.301Z,1.30
2022-09-26T13:46:29.831Z,1.40
2022-09-26T13:49:27.317Z,1.60
2022-09-26T13:52:24.770Z,1.30
2022-09-26T13:55:22.181Z,1.50
2022-09-26T13:58:20.149Z,1.60
2022-09-26T14:01:18.265Z,1.30
2022-09-26T14:04:16.493Z,1.60
2022-09-26T14:07:27.814Z,1.30
2022-09-26T14:10:25.248Z,1.40
2022-09-26T14:13:22.717Z,1.90
2022-09-26T14:16:20.874Z,1.70
2022-09-26T14:19:18.455Z,1.70
2022-09-26T14:22:15.880Z,1.30
2022-09-26T14:25:13.561Z,1.70
2022-09-26T14:28:12.684Z,1.50
2022-09-26T14:31:11.375Z,1.60
2022-09-26T14:34:08.896Z,1.50
2022-09-26T14:37:06.353Z,1.30
2022-09-26T14:40:04.385Z,1.40
2022-09-26T14:43:01.823Z,1.60
2022-09-26T14:45:59.339Z,1.50
2022-09-26T14:48:56.807Z,1.60
2022-09-26T14:51:54.237Z,1.60
2022-09-26T14:54:51.677Z,1.20
2022-09-26T14:57:49.159Z,1.50
2022-09-26T15:00:46.566Z,1.90
2022-09-26T15:03:44.038Z,1.70
2022-09-26T15:06:41.414Z,1.50
2022-09-26T15:09:38.853Z,1.50
2022-09-26T15:12:39.248Z,1.10
2022-09-26T15:15:36.950Z,1.40
2022-09-26T15:18:35.069Z,1.40
2022-09-26T15:21:34.374Z,1.40
2022-09-26T15:24:33.089Z,1.40
2022-09-26T15:27:31.873Z,1.50
2022-09-26T15:30:29.401Z,1.60
2022-09-26T15:33:26.845Z,1.50
2022-09-26T15:36:24.286Z,1.10
2022-09-26T15:39:21.710Z,1.30
2022-09-26T15:42:36.826Z,1.30
2022-09-26T15:45:34.287Z,1.30
2022-09-26T15:48:32.824Z,1.20
2022-09-26T15:51:30.261Z,1.40
2022-09-26T15:54:27.691Z,1.20
2022-09-26T15:57:25.153Z,1.30
2022-09-26T16:00:22.564Z,1.40
2022-09-26T16:03:20.015Z,1.20
2022-09-26T16:06:17.474Z,1.40
2022-09-26T16:09:14.911Z,1.30
2022-09-26T16:12:15.158Z,1.60
2022-09-26T16:15:13.635Z,1.30
2022-09-26T16:18:11.078Z,1.30
2022-09-26T16:21:08.514Z,1.40
2022-09-26T16:24:05.931Z,1.70
2022-09-26T16:27:03.890Z,1.60
2022-09-26T16:30:05.116Z,1.50
2022-09-26T16:33:03.062Z,1.50
2022-09-26T16:36:00.478Z,1.50
2022-09-26T16:38:57.902Z,1.60
2022-09-26T16:42:01.914Z,1.70
2022-09-26T16:45:00.560Z,1.80
2022-09-26T16:47:57.991Z,1.70
2022-09-26T16:50:55.422Z,1.60
2022-09-26T16:53:53.420Z,1.50
2022-09-26T16:56:51.689Z,1.60
2022-09-26T16:59:49.125Z,1.70
2022-09-26T17:02:46.618Z,1.70
2022-09-26T17:05:44.064Z,1.80
2022-09-26T17:08:41.870Z,1.50
2022-09-26T17:11:39.288Z,1.90
2022-09-26T17:14:40.378Z,2.10
2022-09-26T17:17:38.436Z,1.70
2022-09-26T17:20:35.892Z,1.90
2022-09-26T17:23:42.043Z,3.00
2022-09-26T17:26:39.976Z,3.40
2022-09-26T17:29:38.064Z,3.50
2022-09-26T17:32:35.964Z,3.00
2022-09-26T17:35:33.434Z,2.90
2022-09-26T17:38:32.203Z,3.00
2022-09-26T17:41:34.550Z,2.90
2022-09-26T17:44:32.895Z,2.60
2022-09-26T17:47:30.516Z,2.30
2022-09-26T17:50:29.198Z,2.50
2022-09-26T17:53:26.787Z,2.30
2022-09-26T17:56:26.390Z,2.60
2022-09-26T17:59:23.878Z,2.20
2022-09-26T18:02:24.483Z,3.20
2022-09-26T18:05:22.011Z,2.90
2022-09-26T18:08:19.432Z,2.70
2022-09-26T18:11:16.914Z,2.60
2022-09-26T18:14:15.625Z,2.70
2022-09-26T18:17:13.427Z,4.30
2022-09-26T18:20:11.262Z,2.70
2022-09-26T18:23:09.128Z,2.80
2022-09-26T18:26:07.671Z,2.30
2022-09-26T18:29:08.541Z,2.30
2022-09-26T18:32:06.805Z,2.20
2022-09-26T18:35:04.362Z,2.70
2022-09-26T18:38:01.785Z,2.50
2022-09-26T18:40:59.418Z,2.70
2022-09-26T18:43:57.008Z,2.60
2022-09-26T18:46:58.245Z,2.30
2022-09-26T18:49:58.511Z,2.40
2022-09-26T18:52:56.091Z,2.60
2022-09-26T18:56:11.263Z,2.60
2022-09-26T18:59:10.411Z,2.80
2022-09-26T19:02:08.311Z,2.50
2022-09-26T19:05:06.049Z,2.30
2022-09-26T19:08:04.459Z,2.40
2022-09-26T19:11:04.133Z,2.70
2022-09-26T19:14:01.827Z,2.50
2022-09-26T19:16:59.485Z,2.40
2022-09-26T19:19:57.390Z,2.50
2022-09-26T19:22:54.929Z,2.50
2022-09-26T19:25:52.375Z,2.70
2022-09-26T19:28:49.866Z,2.60
2022-09-26T19:31:48.222Z,2.50
2022-09-26T19:34:45.783Z,3.20
2022-09-26T19:37:43.219Z,3.60
2022-09-26T19:40:42.756Z,3.10
2022-09-26T19:43:43.816Z,2.90
2022-09-26T19:46:41.349Z,3.10
2022-09-26T19:49:41.207Z,3.10
2022-09-26T19:52:38.748Z,4.00
2022-09-26T19:55:36.442Z,3.20
2022-09-26T19:58:33.973Z,4.80
2022-09-26T20:01:31.516Z,4.00
2022-09-26T20:04:29.657Z,4.20
2022-09-26T20:07:27.829Z,4.00
2022-09-26T20:10:26.664Z,3.50
2022-09-26T20:13:24.343Z,3.50
2022-09-26T20:16:22.637Z,3.10
2022-09-26T20:19:20.091Z,3.30
2022-09-26T20:22:17.559Z,3.40
2022-09-26T20:25:15.638Z,3.60
2022-09-26T20:28:13.058Z,3.60
2022-09-26T20:31:10.540Z,3.80
2022-09-26T20:34:08.097Z,4.10
2022-09-26T20:37:05.642Z,3.60
2022-09-26T20:40:03.061Z,3.70
2022-09-26T20:43:01.706Z,3.30
2022-09-26T20:45:59.306Z,3.50
2022-09-26T20:48:56.812Z,3.40
2022-09-26T20:51:54.661Z,3.60
2022-09-26T20:54:52.415Z,4.00
2022-09-26T20:57:50.870Z,4.20
2022-09-26T21:00:48.339Z,4.30
2022-09-26T21:03:45.791Z,4.40
2022-09-26T21:06:43.342Z,4.00
2022-09-26T21:09:41.968Z,3.90
2022-09-26T21:12:41.337Z,4.70
2022-09-26T21:15:41.566Z,5.90
2022-09-26T21:18:39.007Z,5.00
2022-09-26T21:21:40.207Z,5.20
2022-09-26T21:24:38.858Z,5.00
2022-09-26T21:27:36.307Z,5.30
2022-09-26T21:30:33.788Z,4.80
2022-09-26T21:33:31.315Z,4.30
2022-09-26T21:36:32.688Z,3.60
2022-09-26T21:39:32.148Z,3.50
2022-09-26T21:42:29.596Z,3.10
2022-09-26T21:45:27.909Z,3.20
2022-09-26T21:48:25.798Z,3.00
2022-09-26T21:51:23.195Z,3.30
2022-09-26T21:54:21.025Z,2.80
2022-09-26T21:57:18.453Z,2.80
2022-09-26T22:00:15.999Z,2.90
2022-09-26T22:03:13.401Z,2.70
2022-09-26T22:06:10.827Z,5.00
2022-09-26T22:09:08.297Z,3.10
2022-09-26T22:12:05.754Z,3.80
2022-09-26T22:15:03.197Z,3.70
2022-09-26T22:18:01.193Z,3.60
2022-09-26T22:20:58.637Z,3.70
2022-09-26T22:23:56.060Z,3.70
2022-09-26T22:26:53.511Z,4.10
2022-09-26T22:29:50.984Z,3.60
2022-09-26T22:32:48.484Z,3.60
2022-09-26T22:35:45.916Z,3.30
2022-09-26T22:38:43.380Z,2.90
2022-09-26T22:41:40.831Z,3.20
2022-09-26T22:44:38.276Z,2.70
2022-09-26T22:47:35.716Z,3.10
2022-09-26T22:50:33.134Z,2.90
2022-09-26T22:53:30.567Z,2.80
2022-09-26T22:56:27.981Z,3.00
2022-09-26T22:59:25.399Z,2.80
2022-09-26T23:02:23.241Z,2.50
2022-09-26T23:05:20.686Z,2.80
2022-09-26T23:08:18.115Z,3.10
2022-09-26T23:11:16.811Z,2.80
2022-09-26T23:14:14.231Z,2.50
2022-09-26T23:17:11.890Z,2.20
2022-09-26T23:20:09.419Z,2.30
2022-09-26T23:23:06.849Z,2.20
2022-09-26T23:26:04.267Z,2.50
2022-09-26T23:29:01.682Z,2.00
2022-09-26T23:31:59.118Z,2.10
2022-09-26T23:34:56.571Z,2.40
2022-09-26T23:37:53.987Z,1.80
2022-09-26T23:40:51.457Z,2.20
2022-09-26T23:43:48.911Z,1.80
2022-09-26T23:46:46.376Z,2.20
2022-09-26T23:49:43.799Z,2.20
2022-09-26T23:52:41.646Z,2.10
2022-09-26T23:55:39.064Z,1.90
2022-09-26T23:58:37.322Z,2.10
